Farmington Hills, MI (48331)

4:01 PM EDT on August 30, 2015 (GMT -0400)
APRSWXNET | | Change Station
CLOSE
Current Station
Personal Weather Station
Location: West Bloomfield, MI
Elevation: 987 ft
Nearby Weather Stations

Elev 987 ft 42.54 °N, 83.38 °W | Updated 31 minutes ago

Mostly Cloudy
Mostly Cloudy
82 °F
Feels Like 86 °F
N
2
Wind Variable Wind from West
Gusts 5.0 mph

Today
High -- | Low -- °F
--% Chance of Precip.
Yesterday
High -- | Low -- °F
Precip. -- in
6:56 AM 8:11 PM
Full, 98% visible
Pressure 30.01 in
Visibility 8.0 miles
Clouds Scattered Clouds 3700 ft
Overcast 18000 ft
Heat Index 86 °F
Dew Point 69 °F
Humidity 66%
Rainfall in
Snow Depth Not available.
UV 2 out of 12
Pollen 9.60 out of 12
Air Quality Not available.
Flu Activity Not available.
METAR KPTK 301953Z 20007KT 8SM SCT037 OVC180 27/19 A3003 RMK AO2 SLP162 HZ PRSNT T02670194
Pressure 30.01 in
Visibility 8.0 miles
Clouds Scattered Clouds 3700 ft
Overcast 18000 ft
Heat Index 86 °F
Dew Point 69 °F
Humidity 66%
Rainfall in
Snow Depth Not available.
UV 2 out of 12
Pollen 9.60 out of 12
Air Quality Not available.
Flu Activity Not available.
METAR KPTK 301953Z 20007KT 8SM SCT037 OVC180 27/19 A3003 RMK AO2 SLP162 HZ PRSNT T02670194

10-Day Weather Forecast

×

Almanac

Astronomy

Aug. 30, 2015 Rise Set
Actual Time
Civil Twilight
Nautical Twilight
Astronomical Twilight
Moon
Length of Visible Light
Length of Day
Tomorrow will be .
, % of the Moon is Illuminated

Today's Extremes

State Highs State Lows

Community

WunderPhotos

Upload Photos

1,851,048 photos uploaded!

WunderBlogs® & News

Nearby

Air Quality

  Air Quality AQ Index Pollutant
Not available.

Snow Depth

Station Depth Elevation

Earthquake Activity

City Distance Mag. Time & Date
Minimum magnitude displayed is 2.5.

Coastal Water Temperatures

Place Temperature

Stations

Nearby Weather Stations

Station Location Temp. Windchill Dew Point Humidity Wind Precip. Elev Updated Type